createdAt,value
2023-05-03T00:01:45.250Z,99890.09
2023-05-03T00:04:15.805Z,99898.78
2023-05-03T00:06:45.758Z,99886.22
2023-05-03T00:09:12.771Z,99885.41
2023-05-03T00:11:39.783Z,99903.75
2023-05-03T00:14:06.612Z,99890.84
2023-05-03T00:16:33.546Z,99888.69
2023-05-03T00:19:00.354Z,99896.72
2023-05-03T00:21:27.297Z,99895.81
2023-05-03T00:23:54.447Z,99890.47
2023-05-03T00:26:21.587Z,99893.28
2023-05-03T00:28:48.819Z,99883.50
2023-05-03T00:31:15.760Z,99881.63
2023-05-03T00:33:42.829Z,99883.59
2023-05-03T00:36:15.136Z,99880.03
2023-05-03T00:38:43.170Z,99877.59
2023-05-03T00:41:11.074Z,99869.84
2023-05-03T00:43:38.185Z,99869.75
2023-05-03T00:46:16.719Z,99867.59
2023-05-03T00:48:51.524Z,99877.41
2023-05-03T00:51:20.740Z,99882.63
2023-05-03T00:53:47.719Z,99868.94
2023-05-03T00:56:23.809Z,99785.66
2023-05-03T00:58:54.279Z,99862.41
2023-05-03T01:01:21.569Z,99862.94
2023-05-03T01:03:50.850Z,99857.69
2023-05-03T01:06:36.491Z,99853.06
2023-05-03T01:09:13.015Z,99840.22
2023-05-03T01:11:54.830Z,99848.91
2023-05-03T01:14:47.115Z,99856.28
2023-05-03T01:17:15.626Z,99843.72
2023-05-03T01:19:57.573Z,99842.53
2023-05-03T01:22:39.203Z,99841.28
2023-05-03T01:25:11.488Z,99847.13
2023-05-03T01:27:39.654Z,99840.06
2023-05-03T01:30:08.840Z,99832.63
2023-05-03T01:32:35.751Z,99839.44
2023-05-03T01:35:28.270Z,99849.06
2023-05-03T01:37:57.500Z,99845.56
2023-05-03T01:40:27.016Z,99844.44
2023-05-03T01:42:55.733Z,99843.22
2023-05-03T01:45:23.208Z,99834.78
2023-05-03T01:47:50.137Z,99804.91
2023-05-03T01:50:17.252Z,99806.75
2023-05-03T01:52:45.292Z,99823.44
2023-05-03T01:55:12.380Z,99814.44
2023-05-03T01:57:39.173Z,99825.59
2023-05-03T02:00:07.180Z,99817.31
2023-05-03T02:02:39.484Z,99814.53
2023-05-03T02:05:06.895Z,99824.28
2023-05-03T02:07:34.045Z,99811.16
2023-05-03T02:10:01.573Z,99809.34
2023-05-03T02:12:28.620Z,99803.66
2023-05-03T02:14:55.799Z,99805.41
2023-05-03T02:17:26.520Z,99802.50
2023-05-03T02:19:53.835Z,99813.25
2023-05-03T02:22:20.844Z,99808.41
2023-05-03T02:24:47.968Z,99802.06
2023-05-03T02:27:15.801Z,99788.69
2023-05-03T02:29:45.007Z,99786.75
2023-05-03T02:32:12.598Z,99802.28
2023-05-03T02:34:39.764Z,99794.31
2023-05-03T02:37:08.479Z,99785.81
2023-05-03T02:39:35.559Z,99781.34
2023-05-03T02:42:03.685Z,99783.81
2023-05-03T02:44:32.433Z,99761.94
2023-05-03T02:47:00.526Z,99771.44
2023-05-03T02:49:27.521Z,99765.66
2023-05-03T02:51:54.376Z,99780.91
2023-05-03T02:54:21.486Z,99780.63
2023-05-03T02:56:48.549Z,99823.63
2023-05-03T02:59:15.763Z,99836.56
2023-05-03T03:01:43.015Z,99827.22
2023-05-03T03:04:11.021Z,99831.28
2023-05-03T03:06:38.139Z,99832.41
2023-05-03T03:09:06.118Z,99834.69
2023-05-03T03:11:35.231Z,99841.81
2023-05-03T03:14:02.146Z,99841.03
2023-05-03T03:16:29.227Z,99832.31
2023-05-03T03:18:56.703Z,99832.41
2023-05-03T03:21:23.528Z,99845.56
2023-05-03T03:23:50.510Z,99832.47
2023-05-03T03:26:18.976Z,99838.97
2023-05-03T03:28:46.498Z,99822.00
2023-05-03T03:31:14.149Z,99831.00
2023-05-03T03:33:42.550Z,99826.84
2023-05-03T03:36:14.704Z,99830.50
2023-05-03T03:38:44.359Z,99839.44
2023-05-03T03:41:11.884Z,99821.06
2023-05-03T03:43:39.021Z,99834.44
2023-05-03T03:46:11.215Z,99833.56
2023-05-03T03:48:38.901Z,99837.38
2023-05-03T03:51:06.055Z,99838.16
2023-05-03T03:53:39.251Z,99823.50
2023-05-03T03:56:06.591Z,99821.56
2023-05-03T03:58:34.094Z,99832.38
2023-05-03T04:01:03.195Z,99830.63
2023-05-03T04:03:30.751Z,99823.97
2023-05-03T04:05:58.354Z,99835.34
2023-05-03T04:08:26.708Z,99827.44
2023-05-03T04:10:53.797Z,99821.94
2023-05-03T04:13:21.412Z,99827.88
2023-05-03T04:15:55.077Z,99831.03
2023-05-03T04:18:23.008Z,99838.09
2023-05-03T04:20:51.777Z,99822.22
2023-05-03T04:23:19.083Z,99848.59
2023-05-03T04:25:46.797Z,99831.78
2023-05-03T04:28:15.477Z,99834.97
2023-05-03T04:30:47.466Z,99843.16
2023-05-03T04:33:18.236Z,99838.47
2023-05-03T04:35:49.525Z,99837.28
2023-05-03T04:38:18.798Z,99844.19
2023-05-03T04:40:46.657Z,99822.41
2023-05-03T04:43:13.785Z,99821.44
2023-05-03T04:45:44.934Z,99835.72
2023-05-03T04:48:18.462Z,99828.81
2023-05-03T04:50:45.818Z,99840.97
2023-05-03T04:53:14.875Z,99836.28
2023-05-03T04:55:44.905Z,99840.78
2023-05-03T04:58:11.849Z,99847.88
2023-05-03T05:00:42.148Z,99824.22
2023-05-03T05:03:15.205Z,99829.41
2023-05-03T05:05:43.518Z,99839.28
2023-05-03T05:08:12.067Z,99833.84
2023-05-03T05:10:45.010Z,99846.97
2023-05-03T05:13:16.351Z,99844.50
2023-05-03T05:15:43.301Z,99846.88
2023-05-03T05:18:12.613Z,99845.00
2023-05-03T05:20:40.692Z,99845.25
2023-05-03T05:23:08.186Z,99852.28
2023-05-03T05:25:35.834Z,99854.78
2023-05-03T05:28:03.992Z,99858.13
2023-05-03T05:30:31.593Z,99847.25
2023-05-03T05:32:59.235Z,99862.22
2023-05-03T05:35:26.357Z,99863.91
2023-05-03T05:37:53.223Z,99879.38
2023-05-03T05:40:20.465Z,99869.75
2023-05-03T05:42:52.848Z,99877.09
2023-05-03T05:45:21.828Z,99878.06
2023-05-03T05:47:51.425Z,99867.66
2023-05-03T05:50:19.451Z,99879.22
2023-05-03T05:52:53.280Z,99884.56
2023-05-03T05:55:21.395Z,99869.91
2023-05-03T05:57:50.139Z,99878.25
2023-05-03T06:00:21.186Z,99869.28
2023-05-03T06:02:49.003Z,99874.16
2023-05-03T06:05:21.013Z,99879.13
2023-05-03T06:07:48.798Z,99874.03
2023-05-03T06:10:16.280Z,99872.53
2023-05-03T06:12:47.431Z,99869.53
2023-05-03T06:15:19.146Z,99875.53
2023-05-03T06:17:46.570Z,99872.09
2023-05-03T06:20:13.953Z,99874.84
2023-05-03T06:22:42.246Z,99889.00
2023-05-03T06:25:16.170Z,99891.13
2023-05-03T06:27:45.865Z,99910.88
2023-05-03T06:30:13.361Z,99917.34
2023-05-03T06:32:42.359Z,99921.69
2023-05-03T06:35:10.184Z,99936.00
2023-05-03T06:37:39.035Z,99920.59
2023-05-03T06:40:07.639Z,99932.34
2023-05-03T06:42:36.686Z,99925.91
2023-05-03T06:45:10.117Z,99931.69
2023-05-03T06:47:40.204Z,99939.56
2023-05-03T06:50:08.234Z,99924.31
2023-05-03T06:52:35.070Z,99934.63
2023-05-03T06:55:02.004Z,99926.13
2023-05-03T06:57:29.020Z,99937.91
2023-05-03T06:59:56.235Z,99925.63
2023-05-03T07:02:23.249Z,99923.03
2023-05-03T07:04:50.785Z,99930.34
2023-05-03T07:07:17.653Z,99920.41
2023-05-03T07:09:44.634Z,99943.28
2023-05-03T07:12:12.370Z,99943.09
2023-05-03T07:14:40.654Z,99949.16
2023-05-03T07:17:07.737Z,99943.97
2023-05-03T07:19:34.847Z,99944.56
2023-05-03T07:22:03.484Z,99941.94
2023-05-03T07:24:30.502Z,99942.47
2023-05-03T07:26:58.437Z,99943.19
2023-05-03T07:29:26.642Z,99929.03
2023-05-03T07:31:54.000Z,99940.75
2023-05-03T07:34:21.506Z,99928.56
2023-05-03T07:36:48.646Z,99938.06
2023-05-03T07:39:15.930Z,99941.53
2023-05-03T07:41:42.977Z,99948.03
2023-05-03T07:44:10.133Z,99949.56
2023-05-03T07:46:37.042Z,99948.75
2023-05-03T07:49:05.474Z,99948.63
2023-05-03T07:51:39.111Z,99948.38
2023-05-03T07:54:06.375Z,99947.63
2023-05-03T07:56:33.769Z,99950.22
2023-05-03T08:01:30.550Z,99959.59
2023-05-03T08:03:58.721Z,99944.16
2023-05-03T08:06:26.382Z,99944.03
2023-05-03T08:08:53.446Z,99948.31
2023-05-03T08:11:20.577Z,99960.16
2023-05-03T08:13:47.474Z,99947.03
2023-05-03T08:16:14.458Z,99944.03
2023-05-03T08:18:41.720Z,99952.91
2023-05-03T08:21:12.196Z,99952.41
2023-05-03T08:23:39.591Z,99948.41
2023-05-03T08:26:09.572Z,99951.75
2023-05-03T08:28:36.399Z,99951.03
2023-05-03T08:31:06.860Z,99951.41
2023-05-03T08:33:33.870Z,99945.63
2023-05-03T08:36:01.876Z,99939.63
2023-05-03T08:38:29.037Z,99949.31
2023-05-03T08:40:59.601Z,99941.72
2023-05-03T08:43:29.061Z,99935.84
2023-05-03T08:45:56.296Z,99931.22
2023-05-03T08:48:23.402Z,99931.78
2023-05-03T08:50:51.764Z,99930.38
2023-05-03T08:53:18.871Z,99935.50
2023-05-03T08:55:46.022Z,99930.78
2023-05-03T08:58:13.606Z,99932.53
2023-05-03T09:00:45.030Z,99926.72
2023-05-03T09:03:13.166Z,99914.25
2023-05-03T09:05:43.429Z,99896.31
2023-05-03T09:08:14.785Z,99917.28
2023-05-03T09:10:42.895Z,99928.84
2023-05-03T09:13:10.945Z,99935.19
2023-05-03T09:15:38.085Z,99939.56
2023-05-03T09:18:17.822Z,99926.97
2023-05-03T09:20:52.241Z,99935.75
2023-05-03T09:23:32.176Z,99929.84
2023-05-03T09:26:00.191Z,99933.59
2023-05-03T09:28:27.853Z,99925.22
2023-05-03T09:31:07.821Z,99921.13
2023-05-03T09:33:34.881Z,99905.97
2023-05-03T09:36:04.891Z,99911.56
2023-05-03T09:38:39.310Z,99907.06
2023-05-03T09:41:06.388Z,99904.31
2023-05-03T09:43:35.074Z,99906.22
2023-05-03T09:46:12.355Z,99903.34
2023-05-03T09:48:40.780Z,99904.59
2023-05-03T09:51:08.818Z,99891.97
2023-05-03T09:53:37.192Z,99893.72
2023-05-03T09:56:07.081Z,99876.94
2023-05-03T09:58:35.348Z,99874.09
2023-05-03T10:01:02.718Z,99878.72
2023-05-03T10:03:35.333Z,99869.84
2023-05-03T10:06:05.218Z,99847.84
2023-05-03T10:08:45.501Z,99849.09
2023-05-03T10:11:14.494Z,99858.06
2023-05-03T10:13:41.517Z,99846.38
2023-05-03T10:16:15.316Z,99845.94
2023-05-03T10:18:49.619Z,99837.84
2023-05-03T10:21:33.582Z,99834.63
2023-05-03T10:24:14.248Z,99849.69
2023-05-03T10:26:47.704Z,99840.97
2023-05-03T10:29:37.340Z,99848.91
2023-05-03T10:32:05.572Z,99847.31
2023-05-03T10:34:39.646Z,99843.34
2023-05-03T10:37:11.685Z,99843.09
2023-05-03T10:39:45.374Z,99844.34
2023-05-03T10:42:13.263Z,99831.97
2023-05-03T10:44:41.230Z,99846.78
2023-05-03T10:47:16.127Z,99836.47
2023-05-03T10:49:43.395Z,99830.69
2023-05-03T10:52:48.403Z,99832.50
2023-05-03T10:55:21.214Z,99823.28
2023-05-03T10:57:49.410Z,99819.34
2023-05-03T11:00:38.741Z,99822.16
2023-05-03T11:03:20.326Z,99818.72
2023-05-03T11:05:51.824Z,99811.81
2023-05-03T11:08:21.153Z,99818.41
2023-05-03T11:10:57.634Z,99807.53
2023-05-03T11:13:24.499Z,99795.41
2023-05-03T11:15:56.043Z,99804.06
2023-05-03T11:18:25.169Z,99799.72
2023-05-03T11:20:53.820Z,99783.78
2023-05-03T11:23:28.248Z,99785.94
2023-05-03T11:25:57.847Z,99783.53
2023-05-03T11:28:26.151Z,99776.66
2023-05-03T11:30:53.271Z,99780.63
2023-05-03T11:33:20.600Z,99776.97
2023-05-03T11:35:47.509Z,99777.91
2023-05-03T11:38:14.528Z,99775.53
2023-05-03T11:40:41.807Z,99782.63
2023-05-03T11:43:09.131Z,99776.72
2023-05-03T11:45:45.576Z,99785.72
2023-05-03T11:48:13.781Z,99780.47
2023-05-03T11:50:47.812Z,99774.94
2023-05-03T11:53:16.219Z,99783.31
2023-05-03T11:55:46.535Z,99780.94
2023-05-03T11:58:17.950Z,99796.56
2023-05-03T12:00:47.296Z,99781.66
2023-05-03T12:03:30.229Z,99790.88
2023-05-03T12:05:58.897Z,99785.16
2023-05-03T12:08:36.318Z,99779.91
2023-05-03T12:11:06.860Z,99775.97
2023-05-03T12:13:38.597Z,99781.59
2023-05-03T12:18:48.457Z,99783.91
2023-05-03T12:23:46.972Z,99778.81
2023-05-03T12:26:15.119Z,99769.06
2023-05-03T12:28:42.513Z,99762.72
2023-05-03T12:33:38.806Z,99776.44
2023-05-03T12:36:09.807Z,99776.59
2023-05-03T12:38:37.826Z,99769.38
2023-05-03T12:41:08.808Z,99761.69
2023-05-03T12:43:36.733Z,99755.84
2023-05-03T12:48:33.909Z,99739.88
2023-05-03T12:51:19.359Z,99741.44
2023-05-03T12:53:48.217Z,99726.72
2023-05-03T12:56:15.411Z,99733.13
2023-05-03T12:59:05.283Z,99737.91
2023-05-03T13:04:23.885Z,99735.94
2023-05-03T13:06:46.930Z,99732.81
2023-05-03T13:11:48.281Z,99744.66
2023-05-03T13:14:16.531Z,99739.00
2023-05-03T13:16:45.698Z,99727.75
2023-05-03T13:19:13.325Z,99717.00
2023-05-03T13:21:40.410Z,99712.63
2023-05-03T13:24:07.764Z,99713.81
2023-05-03T13:26:35.562Z,99696.84
2023-05-03T13:29:02.639Z,99703.03
2023-05-03T13:31:30.359Z,99694.22
2023-05-03T13:33:57.482Z,99683.19
2023-05-03T13:36:24.743Z,99676.25
2023-05-03T13:38:53.107Z,99677.59
2023-05-03T13:41:20.830Z,99678.16
2023-05-03T13:43:48.339Z,99680.44
2023-05-03T13:46:15.409Z,99653.69
2023-05-03T13:48:42.717Z,99658.97
2023-05-03T13:51:14.034Z,99662.56
2023-05-03T13:53:41.093Z,99663.94
2023-05-03T13:56:08.543Z,99684.84
2023-05-03T13:58:36.296Z,99691.25
2023-05-03T14:01:03.655Z,99696.81
2023-05-03T14:03:33.266Z,99699.66
2023-05-03T14:06:00.528Z,99691.16
2023-05-03T14:08:27.346Z,99705.38
2023-05-03T14:10:54.254Z,99696.16
2023-05-03T14:13:21.996Z,99706.03
2023-05-03T14:15:49.205Z,99703.91
2023-05-03T14:18:16.425Z,99704.13
2023-05-03T14:20:43.509Z,99694.00
2023-05-03T14:23:10.796Z,99694.00
2023-05-03T14:25:37.723Z,99693.13
2023-05-03T14:28:05.457Z,99686.81
2023-05-03T14:30:33.196Z,99697.22
2023-05-03T14:33:00.484Z,99676.09
2023-05-03T14:35:27.475Z,99682.91
2023-05-03T14:37:54.882Z,99678.13
2023-05-03T14:40:22.044Z,99674.00
2023-05-03T14:42:49.106Z,99658.78
2023-05-03T14:45:16.069Z,99659.66
2023-05-03T14:47:43.206Z,99663.56
2023-05-03T14:50:10.688Z,99683.81
2023-05-03T14:52:40.557Z,99668.56
2023-05-03T14:55:08.034Z,99662.84
2023-05-03T14:57:36.494Z,99656.88
2023-05-03T15:00:06.913Z,99671.78
2023-05-03T15:02:34.264Z,99662.41
2023-05-03T15:05:01.498Z,99669.00
2023-05-03T15:07:28.692Z,99651.53
2023-05-03T15:09:55.754Z,99656.38
2023-05-03T15:12:22.926Z,99656.81
2023-05-03T15:14:49.905Z,99630.66
2023-05-03T15:17:16.941Z,99624.41
2023-05-03T15:19:43.952Z,99626.25
2023-05-03T15:22:11.174Z,99618.75
2023-05-03T15:24:38.006Z,99621.84
2023-05-03T15:27:05.043Z,99613.47
2023-05-03T15:29:32.200Z,99603.91
2023-05-03T15:31:59.145Z,99611.00
2023-05-03T15:34:26.241Z,99606.28
2023-05-03T15:36:53.358Z,99605.03
2023-05-03T15:39:20.517Z,99611.03
2023-05-03T15:41:47.405Z,99612.53
2023-05-03T15:44:15.071Z,99604.66
2023-05-03T15:46:43.099Z,99614.56
2023-05-03T15:49:12.013Z,99605.63
2023-05-03T15:51:39.315Z,99589.84
2023-05-03T15:54:06.399Z,99612.00
2023-05-03T15:56:33.282Z,99608.50
2023-05-03T15:59:00.068Z,99615.50
2023-05-03T16:01:27.197Z,99605.09
2023-05-03T16:03:54.226Z,99602.22
2023-05-03T16:06:21.134Z,99604.66
2023-05-03T16:08:47.943Z,99593.59
2023-05-03T16:11:15.066Z,99607.53
2023-05-03T16:13:42.112Z,99608.06
2023-05-03T16:16:12.480Z,99595.31
2023-05-03T16:18:39.721Z,99604.47
2023-05-03T16:21:06.704Z,99607.34
2023-05-03T16:23:33.507Z,99617.56
2023-05-03T16:26:01.145Z,99617.75
2023-05-03T16:28:28.021Z,99610.03
2023-05-03T16:30:55.036Z,99624.19
2023-05-03T16:33:22.454Z,99622.56
2023-05-03T16:35:50.050Z,99644.88
2023-05-03T16:38:17.192Z,99640.25
2023-05-03T16:40:44.132Z,99629.84
2023-05-03T16:43:11.454Z,99642.34
2023-05-03T16:45:38.594Z,99646.53
2023-05-03T16:48:08.181Z,99640.81
2023-05-03T16:50:43.254Z,99643.25
2023-05-03T16:53:12.039Z,99637.13
2023-05-03T16:55:39.144Z,99634.78
2023-05-03T16:58:06.193Z,99617.66
2023-05-03T17:00:33.568Z,99624.59
2023-05-03T17:03:00.698Z,99646.91
2023-05-03T17:05:33.241Z,99626.91
2023-05-03T17:08:03.521Z,99641.84
2023-05-03T17:10:31.752Z,99640.31
2023-05-03T17:13:02.035Z,99645.66
2023-05-03T17:15:29.058Z,99652.94
2023-05-03T17:17:56.088Z,99643.56
2023-05-03T17:20:23.174Z,99652.38
2023-05-03T17:22:50.232Z,99653.50
2023-05-03T17:25:17.400Z,99642.53
2023-05-03T17:27:44.493Z,99675.75
2023-05-03T17:30:21.120Z,99677.13
2023-05-03T17:32:48.569Z,99681.50
2023-05-03T17:35:15.813Z,99700.59
2023-05-03T17:37:42.607Z,99693.44
2023-05-03T17:40:10.692Z,99696.53
2023-05-03T17:42:40.932Z,99703.19
2023-05-03T17:45:09.050Z,99677.56
2023-05-03T17:47:35.940Z,99706.72
2023-05-03T17:50:03.027Z,99705.69
2023-05-03T17:52:30.125Z,99722.47
2023-05-03T17:54:57.516Z,99730.66
2023-05-03T17:57:24.329Z,99739.09
2023-05-03T17:59:51.990Z,99736.59
2023-05-03T18:02:19.110Z,99745.38
2023-05-03T18:04:47.022Z,99764.13
2023-05-03T18:07:14.926Z,99760.25
2023-05-03T18:09:41.837Z,99776.75
2023-05-03T18:12:08.779Z,99783.50
2023-05-03T18:14:36.835Z,99789.19
2023-05-03T18:17:03.677Z,99790.31
2023-05-03T18:19:31.339Z,99763.75
2023-05-03T18:21:58.453Z,99752.00
2023-05-03T18:24:25.309Z,99764.84
2023-05-03T18:26:52.635Z,99766.53
2023-05-03T18:29:19.489Z,99762.88
2023-05-03T18:31:50.423Z,99769.75
2023-05-03T18:34:17.441Z,99766.16
2023-05-03T18:40:43.871Z,99799.22
2023-05-03T18:43:10.737Z,99813.38
2023-05-03T18:45:41.017Z,99836.00
2023-05-03T18:48:08.347Z,99840.94
2023-05-03T18:50:36.228Z,99813.06
2023-05-03T18:53:03.967Z,99794.31
2023-05-03T18:55:30.879Z,99751.94
2023-05-03T18:57:58.914Z,99725.59
2023-05-03T19:00:26.048Z,99798.09
2023-05-03T19:02:52.948Z,99811.78
2023-05-03T19:05:20.251Z,99817.81
2023-05-03T19:07:48.423Z,99815.88
2023-05-03T19:10:17.157Z,99813.25
2023-05-03T19:13:05.076Z,99819.09
2023-05-03T19:15:40.730Z,99821.41
2023-05-03T19:18:08.245Z,99842.72
2023-05-03T19:20:35.162Z,99853.19
2023-05-03T19:23:02.447Z,99836.41
2023-05-03T19:25:29.256Z,99840.97
2023-05-03T19:27:56.162Z,99839.81
2023-05-03T19:30:23.128Z,99851.88
2023-05-03T19:32:50.154Z,99848.28
2023-05-03T19:35:16.977Z,99854.16
2023-05-03T19:37:44.661Z,99843.56
2023-05-03T19:40:12.384Z,99841.78
2023-05-03T19:42:39.462Z,99852.19
2023-05-03T19:45:06.643Z,99857.72
2023-05-03T19:47:33.864Z,99860.16
2023-05-03T19:50:00.932Z,99887.84
2023-05-03T19:52:40.373Z,99884.88
2023-05-03T19:55:07.777Z,99879.69
2023-05-03T19:57:44.825Z,99899.88
2023-05-03T20:00:14.318Z,99901.81
2023-05-03T20:02:41.581Z,99890.91
2023-05-03T20:05:08.853Z,99903.91
2023-05-03T20:07:35.755Z,99886.97
2023-05-03T20:11:03.983Z,99895.13
2023-05-03T20:13:30.880Z,99886.16
2023-05-03T20:15:57.888Z,99900.13
2023-05-03T20:18:24.745Z,99895.88
2023-05-03T20:20:51.565Z,99908.75
2023-05-03T20:23:18.649Z,99914.06
2023-05-03T20:25:45.587Z,99908.41
2023-05-03T20:28:13.124Z,99883.03
2023-05-03T20:30:40.002Z,99852.75
2023-05-03T20:33:07.423Z,99867.72
2023-05-03T20:35:36.399Z,99881.22
2023-05-03T20:38:03.582Z,99870.94
2023-05-03T20:40:30.549Z,99877.28
2023-05-03T20:42:57.755Z,99849.19
2023-05-03T20:45:24.565Z,99869.84
2023-05-03T20:47:51.645Z,99865.78
2023-05-03T20:50:18.891Z,99871.25
2023-05-03T20:52:46.053Z,99868.88
2023-05-03T20:55:12.842Z,99870.44
2023-05-03T20:57:41.286Z,99839.03
2023-05-03T21:00:11.562Z,99849.94
2023-05-03T21:02:38.965Z,99838.88
2023-05-03T21:05:06.464Z,99832.69
2023-05-03T21:07:33.507Z,99825.66
2023-05-03T21:10:00.563Z,99845.63
2023-05-03T21:12:29.075Z,99830.81
2023-05-03T21:14:55.907Z,99826.84
2023-05-03T21:17:22.947Z,99839.88
2023-05-03T21:19:49.871Z,99814.31
2023-05-03T21:22:17.049Z,99842.88
2023-05-03T21:24:50.959Z,99845.13
2023-05-03T21:27:19.905Z,99839.97
2023-05-03T21:29:46.672Z,99819.06
2023-05-03T21:32:13.599Z,99801.66
2023-05-03T21:34:40.545Z,99812.00
2023-05-03T21:37:07.468Z,99792.22
2023-05-03T21:39:34.384Z,99800.22
2023-05-03T21:42:01.344Z,99802.31
2023-05-03T21:44:28.258Z,99807.66
2023-05-03T21:46:55.533Z,99824.03
2023-05-03T21:49:22.453Z,99830.34
2023-05-03T21:51:49.244Z,99842.50
2023-05-03T21:54:17.326Z,99833.63
2023-05-03T21:56:44.146Z,99842.50
2023-05-03T21:59:11.110Z,99837.31
2023-05-03T22:01:38.103Z,99824.59
2023-05-03T22:04:05.795Z,99830.75
2023-05-03T22:06:32.801Z,99838.88
2023-05-03T22:09:00.035Z,99816.09
2023-05-03T22:11:26.898Z,99836.28
2023-05-03T22:14:06.758Z,99833.03
2023-05-03T22:16:35.637Z,99842.06
2023-05-03T22:19:02.628Z,99823.94
2023-05-03T22:21:29.502Z,99830.44
2023-05-03T22:23:56.425Z,99832.91
2023-05-03T22:26:24.360Z,99811.94
2023-05-03T22:28:52.045Z,99835.16
2023-05-03T22:31:19.041Z,99840.31
2023-05-03T22:33:48.874Z,99852.91
2023-05-03T22:36:16.189Z,99858.06
2023-05-03T22:38:43.474Z,99863.63
2023-05-03T22:41:10.526Z,99852.16
2023-05-03T22:43:37.651Z,99849.34
2023-05-03T22:46:04.615Z,99858.34
2023-05-03T22:48:32.715Z,99848.88
2023-05-03T22:50:59.963Z,99844.13
2023-05-03T22:53:26.765Z,99844.31
2023-05-03T22:55:57.820Z,99846.63
2023-05-03T22:58:25.932Z,99840.13
2023-05-03T23:00:53.161Z,99840.31
2023-05-03T23:03:21.561Z,99842.69
2023-05-03T23:05:51.470Z,99853.09
2023-05-03T23:08:18.737Z,99850.97
2023-05-03T23:10:45.764Z,99834.03
2023-05-03T23:13:13.157Z,99820.59
2023-05-03T23:15:40.189Z,99838.50
2023-05-03T23:18:07.374Z,99847.38
2023-05-03T23:20:34.465Z,99832.44
2023-05-03T23:23:01.264Z,99842.22
2023-05-03T23:25:28.262Z,99800.78
2023-05-03T23:27:55.227Z,99774.53
2023-05-03T23:30:22.710Z,99796.97
2023-05-03T23:32:51.540Z,99797.03
2023-05-03T23:35:19.666Z,99804.38
2023-05-03T23:37:46.894Z,99797.34
2023-05-03T23:40:13.727Z,99791.91
2023-05-03T23:42:41.425Z,99790.19
2023-05-03T23:45:09.844Z,99783.13
2023-05-03T23:47:37.126Z,99788.31
2023-05-03T23:50:05.047Z,99782.00
2023-05-03T23:52:32.349Z,99796.28
2023-05-03T23:54:59.182Z,99776.16
2023-05-03T23:57:26.739Z,99760.75
2023-05-03T23:59:53.812Z,99755.34
